sensor_id;sensor_type;location;lat;lon;timestamp;pressure;altitude;pressure_sealevel;temperature;humidity
74230;BME280;62589;12.568;99.958;2023-12-04T00:00:11;100987.75;;;33.01;59.13
74230;BME280;62589;12.568;99.958;2023-12-04T00:02:38;100993.31;;;33.01;59.54
74230;BME280;62589;12.568;99.958;2023-12-04T00:05:05;100991.72;;;33.00;59.01
74230;BME280;62589;12.568;99.958;2023-12-04T00:07:32;100998.06;;;33.01;59.07
74230;BME280;62589;12.568;99.958;2023-12-04T00:09:58;101006.81;;;32.99;59.01
74230;BME280;62589;12.568;99.958;2023-12-04T00:12:25;101000.44;;;32.99;59.25
74230;BME280;62589;12.568;99.958;2023-12-04T00:14:51;101000.84;;;33.01;59.66
74230;BME280;62589;12.568;99.958;2023-12-04T00:17:18;101008.41;;;33.00;59.66
74230;BME280;62589;12.568;99.958;2023-12-04T00:19:44;101013.97;;;33.00;59.11
74230;BME280;62589;12.568;99.958;2023-12-04T00:22:11;101017.50;;;32.97;59.36
74230;BME280;62589;12.568;99.958;2023-12-04T00:24:37;101012.38;;;32.99;59.91
74230;BME280;62589;12.568;99.958;2023-12-04T00:27:04;101027.44;;;32.98;59.56
74230;BME280;62589;12.568;99.958;2023-12-04T00:29:30;101034.63;;;32.99;59.89
74230;BME280;62589;12.568;99.958;2023-12-04T00:32:00;101032.22;;;32.98;59.98
74230;BME280;62589;12.568;99.958;2023-12-04T00:34:26;101023.91;;;33.01;59.96
74230;BME280;62589;12.568;99.958;2023-12-04T00:36:53;101025.50;;;33.02;59.71
74230;BME280;62589;12.568;99.958;2023-12-04T00:39:19;101025.94;;;33.04;59.63
74230;BME280;62589;12.568;99.958;2023-12-04T00:41:46;101020.38;;;33.04;60.24
74230;BME280;62589;12.568;99.958;2023-12-04T00:44:12;101019.94;;;33.06;60.30
74230;BME280;62589;12.568;99.958;2023-12-04T00:46:39;101029.50;;;33.08;60.17
74230;BME280;62589;12.568;99.958;2023-12-04T00:49:05;101027.53;;;33.09;60.02
74230;BME280;62589;12.568;99.958;2023-12-04T00:51:39;101027.53;;;33.09;60.62
74230;BME280;62589;12.568;99.958;2023-12-04T00:54:05;101024.78;;;33.12;60.20
74230;BME280;62589;12.568;99.958;2023-12-04T00:56:32;101026.00;;;33.15;60.32
74230;BME280;62589;12.568;99.958;2023-12-04T00:58:58;101022.03;;;33.16;60.02
74230;BME280;62589;12.568;99.958;2023-12-04T01:01:25;101029.63;;;33.19;59.83
74230;BME280;62589;12.568;99.958;2023-12-04T01:03:51;101028.06;;;33.22;60.19
74230;BME280;62589;12.568;99.958;2023-12-04T01:06:22;101034.03;;;33.24;59.77
74230;BME280;62589;12.568;99.958;2023-12-04T01:08:49;101048.78;;;33.28;60.02
74230;BME280;62589;12.568;99.958;2023-12-04T01:11:17;101043.66;;;33.30;60.57
74230;BME280;62589;12.568;99.958;2023-12-04T01:13:45;101047.22;;;33.30;60.40
74230;BME280;62589;12.568;99.958;2023-12-04T01:16:12;101048.44;;;33.33;60.32
74230;BME280;62589;12.568;99.958;2023-12-04T01:18:38;101059.22;;;33.38;60.01
74230;BME280;62589;12.568;99.958;2023-12-04T01:21:05;101057.25;;;33.38;60.05
74230;BME280;62589;12.568;99.958;2023-12-04T01:23:31;101062.84;;;33.42;60.58
74230;BME280;62589;12.568;99.958;2023-12-04T01:25:58;101062.09;;;33.45;60.48
74230;BME280;62589;12.568;99.958;2023-12-04T01:28:24;101069.66;;;33.52;60.54
74230;BME280;62589;12.568;99.958;2023-12-04T01:30:51;101069.34;;;33.60;60.28
74230;BME280;62589;12.568;99.958;2023-12-04T01:33:17;101065.81;;;33.70;60.49
74230;BME280;62589;12.568;99.958;2023-12-04T01:35:44;101063.97;;;33.82;60.70
74230;BME280;62589;12.568;99.958;2023-12-04T01:38:10;101066.00;;;33.92;60.55
74230;BME280;62589;12.568;99.958;2023-12-04T01:40:37;101079.63;;;34.04;60.48
74230;BME280;62589;12.568;99.958;2023-12-04T01:43:03;101082.44;;;34.14;59.56
74230;BME280;62589;12.568;99.958;2023-12-04T01:45:30;101086.47;;;34.21;59.29
74230;BME280;62589;12.568;99.958;2023-12-04T01:47:57;101082.56;;;34.29;58.89
74230;BME280;62589;12.568;99.958;2023-12-04T01:50:24;101085.75;;;34.34;58.50
74230;BME280;62589;12.568;99.958;2023-12-04T01:52:52;101083.78;;;34.38;57.78
74230;BME280;62589;12.568;99.958;2023-12-04T01:55:19;101086.22;;;34.43;57.94
74230;BME280;62589;12.568;99.958;2023-12-04T01:57:48;101083.44;;;34.47;57.88
74230;BME280;62589;12.568;99.958;2023-12-04T02:00:14;101085.44;;;34.54;58.23
74230;BME280;62589;12.568;99.958;2023-12-04T02:02:41;101089.84;;;34.58;57.58
74230;BME280;62589;12.568;99.958;2023-12-04T02:05:08;101095.03;;;34.60;57.84
74230;BME280;62589;12.568;99.958;2023-12-04T02:07:35;101086.66;;;34.60;57.69
74230;BME280;62589;12.568;99.958;2023-12-04T02:10:03;101089.06;;;34.61;57.26
74230;BME280;62589;12.568;99.958;2023-12-04T02:12:30;101089.88;;;34.65;57.32
74230;BME280;62589;12.568;99.958;2023-12-04T02:14:57;101091.50;;;34.70;57.29
74230;BME280;62589;12.568;99.958;2023-12-04T02:17:25;101086.69;;;34.74;57.46
74230;BME280;62589;12.568;99.958;2023-12-04T02:19:52;101087.53;;;34.78;57.19
74230;BME280;62589;12.568;99.958;2023-12-04T02:22:20;101086.38;;;34.86;57.25
74230;BME280;62589;12.568;99.958;2023-12-04T02:24:47;101078.00;;;34.93;57.41
74230;BME280;62589;12.568;99.958;2023-12-04T02:27:23;101083.19;;;34.98;57.35
74230;BME280;62589;12.568;99.958;2023-12-04T02:29:55;101070.88;;;35.06;56.74
74230;BME280;62589;12.568;99.958;2023-12-04T02:32:23;101071.66;;;35.18;56.71
74230;BME280;62589;12.568;99.958;2023-12-04T02:34:50;101065.34;;;35.28;56.40
74230;BME280;62589;12.568;99.958;2023-12-04T02:37:19;101058.16;;;35.41;56.16
74230;BME280;62589;12.568;99.958;2023-12-04T02:39:45;101053.78;;;35.54;56.09
74230;BME280;62589;12.568;99.958;2023-12-04T02:42:12;101048.94;;;35.69;55.85
74230;BME280;62589;12.568;99.958;2023-12-04T02:44:39;101050.53;;;35.80;55.14
74230;BME280;62589;12.568;99.958;2023-12-04T02:47:06;101048.13;;;35.93;54.52
74230;BME280;62589;12.568;99.958;2023-12-04T02:49:32;101044.88;;;36.09;54.38
74230;BME280;62589;12.568;99.958;2023-12-04T02:51:59;101046.44;;;36.21;53.36
74230;BME280;62589;12.568;99.958;2023-12-04T02:54:25;101051.63;;;36.29;52.45
74230;BME280;62589;12.568;99.958;2023-12-04T02:56:51;101048.41;;;36.34;52.50
74230;BME280;62589;12.568;99.958;2023-12-04T02:59:18;101050.41;;;36.37;52.14
74230;BME280;62589;12.568;99.958;2023-12-04T03:01:44;101056.75;;;36.41;52.06
74230;BME280;62589;12.568;99.958;2023-12-04T03:04:11;101061.53;;;36.44;51.78
74230;BME280;62589;12.568;99.958;2023-12-04T03:06:37;101063.53;;;36.47;51.74
74230;BME280;62589;12.568;99.958;2023-12-04T03:09:04;101057.09;;;36.58;51.43
74230;BME280;62589;12.568;99.958;2023-12-04T03:11:30;101063.44;;;36.62;51.22
74230;BME280;62589;12.568;99.958;2023-12-04T03:14:00;101057.84;;;36.62;50.95
74230;BME280;62589;12.568;99.958;2023-12-04T03:16:27;101067.88;;;36.56;50.37
74230;BME280;62589;12.568;99.958;2023-12-04T03:18:54;101076.31;;;36.48;50.30
74230;BME280;62589;12.568;99.958;2023-12-04T03:21:20;101071.13;;;36.40;50.55
74230;BME280;62589;12.568;99.958;2023-12-04T03:23:46;101069.19;;;36.37;50.56
74230;BME280;62589;12.568;99.958;2023-12-04T03:26:13;101065.22;;;36.27;50.65
74230;BME280;62589;12.568;99.958;2023-12-04T03:28:40;101072.38;;;36.21;50.69
74230;BME280;62589;12.568;99.958;2023-12-04T03:31:07;101069.22;;;36.12;50.72
74230;BME280;62589;12.568;99.958;2023-12-04T03:33:34;101072.03;;;36.05;51.14
74230;BME280;62589;12.568;99.958;2023-12-04T03:36:00;101064.88;;;35.97;51.13
74230;BME280;62589;12.568;99.958;2023-12-04T03:38:27;101067.28;;;35.91;51.30
74230;BME280;62589;12.568;99.958;2023-12-04T03:40:53;101057.72;;;35.85;51.64
74230;BME280;62589;12.568;99.958;2023-12-04T03:43:20;101060.53;;;35.78;51.94
74230;BME280;62589;12.568;99.958;2023-12-04T03:45:46;101052.94;;;35.75;52.09
74230;BME280;62589;12.568;99.958;2023-12-04T03:48:13;101048.56;;;35.70;51.90
74230;BME280;62589;12.568;99.958;2023-12-04T03:50:39;101052.53;;;35.69;52.23
74230;BME280;62589;12.568;99.958;2023-12-04T03:53:06;101046.97;;;35.66;52.40
74230;BME280;62589;12.568;99.958;2023-12-04T03:55:33;101046.56;;;35.60;52.48
74230;BME280;62589;12.568;99.958;2023-12-04T03:57:59;101045.41;;;35.54;53.50
74230;BME280;62589;12.568;99.958;2023-12-04T04:00:25;101050.56;;;35.52;54.24
74230;BME280;62589;12.568;99.958;2023-12-04T04:02:52;101044.19;;;35.48;54.77
74230;BME280;62589;12.568;99.958;2023-12-04T04:05:18;101050.19;;;35.46;55.07
74230;BME280;62589;12.568;99.958;2023-12-04T04:07:45;101046.59;;;35.42;54.78
74230;BME280;62589;12.568;99.958;2023-12-04T04:10:11;101042.59;;;35.43;54.75
74230;BME280;62589;12.568;99.958;2023-12-04T04:12:38;101039.00;;;35.43;55.10
74230;BME280;62589;12.568;99.958;2023-12-04T04:15:05;101037.41;;;35.42;55.03
74230;BME280;62589;12.568;99.958;2023-12-04T04:17:31;101038.19;;;35.39;54.79
74230;BME280;62589;12.568;99.958;2023-12-04T04:19:59;101029.03;;;35.35;54.94
74230;BME280;62589;12.568;99.958;2023-12-04T04:22:26;101020.28;;;35.33;54.86
74230;BME280;62589;12.568;99.958;2023-12-04T04:24:52;101024.28;;;35.32;54.78
74230;BME280;62589;12.568;99.958;2023-12-04T04:27:18;101020.69;;;35.31;54.81
74230;BME280;62589;12.568;99.958;2023-12-04T04:29:45;101023.06;;;35.29;55.00
74230;BME280;62589;12.568;99.958;2023-12-04T04:32:11;101016.25;;;35.27;54.96
74230;BME280;62589;12.568;99.958;2023-12-04T04:34:38;101014.25;;;35.24;54.89
74230;BME280;62589;12.568;99.958;2023-12-04T04:37:04;101003.09;;;35.24;55.01
74230;BME280;62589;12.568;99.958;2023-12-04T04:39:31;101003.50;;;35.22;54.88
74230;BME280;62589;12.568;99.958;2023-12-04T04:41:57;101005.88;;;35.20;54.78
74230;BME280;62589;12.568;99.958;2023-12-04T04:44:24;100998.31;;;35.21;55.08
74230;BME280;62589;12.568;99.958;2023-12-04T04:46:50;100998.31;;;35.24;54.99
74230;BME280;62589;12.568;99.958;2023-12-04T04:49:17;100988.78;;;35.32;55.31
74230;BME280;62589;12.568;99.958;2023-12-04T04:51:43;100985.94;;;35.43;55.39
74230;BME280;62589;12.568;99.958;2023-12-04T04:54:09;100980.72;;;35.56;55.16
74230;BME280;62589;12.568;99.958;2023-12-04T04:56:36;100995.09;;;35.68;54.91
74230;BME280;62589;12.568;99.958;2023-12-04T04:59:03;100976.31;;;35.79;54.49
74230;BME280;62589;12.568;99.958;2023-12-04T05:01:29;100975.13;;;35.80;53.18
74230;BME280;62589;12.568;99.958;2023-12-04T05:03:56;100972.31;;;35.84;53.01
74230;BME280;62589;12.568;99.958;2023-12-04T05:06:22;100957.47;;;35.98;52.90
74230;BME280;62589;12.568;99.958;2023-12-04T05:08:49;100958.28;;;35.98;52.60
74230;BME280;62589;12.568;99.958;2023-12-04T05:11:19;100951.84;;;36.08;52.30
74230;BME280;62589;12.568;99.958;2023-12-04T05:13:45;100947.84;;;36.17;52.25
74230;BME280;62589;12.568;99.958;2023-12-04T05:16:12;100943.38;;;36.23;52.24
74230;BME280;62589;12.568;99.958;2023-12-04T05:18:39;100930.19;;;36.30;51.40
74230;BME280;62589;12.568;99.958;2023-12-04T05:21:12;100930.19;;;36.34;51.48
74230;BME280;62589;12.568;99.958;2023-12-04T05:23:38;100921.34;;;36.39;50.88
74230;BME280;62589;12.568;99.958;2023-12-04T05:26:06;100908.16;;;36.39;50.79
74230;BME280;62589;12.568;99.958;2023-12-04T05:28:33;100905.31;;;36.50;50.77
74230;BME280;62589;12.568;99.958;2023-12-04T05:31:03;100899.66;;;36.57;50.60
74230;BME280;62589;12.568;99.958;2023-12-04T05:33:29;100908.00;;;36.61;50.11
74230;BME280;62589;12.568;99.958;2023-12-04T05:35:55;100899.59;;;36.64;50.74
74230;BME280;62589;12.568;99.958;2023-12-04T05:38:22;100896.75;;;36.68;50.09
74230;BME280;62589;12.568;99.958;2023-12-04T05:40:48;100879.56;;;36.73;50.21
74230;BME280;62589;12.568;99.958;2023-12-04T05:43:15;100885.88;;;36.80;49.88
74230;BME280;62589;12.568;99.958;2023-12-04T05:45:41;100881.88;;;36.81;49.29
74230;BME280;62589;12.568;99.958;2023-12-04T05:48:08;100888.28;;;36.82;48.78
74230;BME280;62589;12.568;99.958;2023-12-04T05:50:34;100878.66;;;36.83;49.02
74230;BME280;62589;12.568;99.958;2023-12-04T05:53:01;100881.47;;;36.83;49.23
74230;BME280;62589;12.568;99.958;2023-12-04T05:55:27;100878.63;;;36.87;50.27
74230;BME280;62589;12.568;99.958;2023-12-04T05:57:54;100873.84;;;36.87;49.40
74230;BME280;62589;12.568;99.958;2023-12-04T06:00:20;100864.66;;;36.87;49.14
74230;BME280;62589;12.568;99.958;2023-12-04T06:02:50;100864.28;;;36.81;48.86
74230;BME280;62589;12.568;99.958;2023-12-04T06:05:19;100860.66;;;36.84;48.90
74230;BME280;62589;12.568;99.958;2023-12-04T06:07:46;100856.22;;;36.90;49.02
74230;BME280;62589;12.568;99.958;2023-12-04T06:10:12;100847.38;;;36.95;49.22
74230;BME280;62589;12.568;99.958;2023-12-04T06:12:38;100850.94;;;36.99;48.61
74230;BME280;62589;12.568;99.958;2023-12-04T06:15:06;100841.69;;;37.02;48.92
74230;BME280;62589;12.568;99.958;2023-12-04T06:17:32;100837.69;;;37.03;48.45
74230;BME280;62589;12.568;99.958;2023-12-04T06:19:59;100838.88;;;37.06;49.12
74230;BME280;62589;12.568;99.958;2023-12-04T06:22:25;100836.06;;;37.06;48.95
74230;BME280;62589;12.568;99.958;2023-12-04T06:24:52;100830.84;;;37.08;49.03
74230;BME280;62589;12.568;99.958;2023-12-04T06:27:19;100831.19;;;37.13;48.95
74230;BME280;62589;12.568;99.958;2023-12-04T06:29:47;100821.16;;;37.16;48.80
74230;BME280;62589;12.568;99.958;2023-12-04T06:32:15;100824.31;;;37.22;48.26
74230;BME280;62589;12.568;99.958;2023-12-04T06:34:41;100813.56;;;37.20;47.44
74230;BME280;62589;12.568;99.958;2023-12-04T06:37:12;100812.34;;;37.17;47.58
74230;BME280;62589;12.568;99.958;2023-12-04T06:39:39;100805.88;;;37.24;48.16
74230;BME280;62589;12.568;99.958;2023-12-04T06:42:11;100802.78;;;37.19;47.84
74230;BME280;62589;12.568;99.958;2023-12-04T06:44:37;100791.09;;;37.24;47.92
74230;BME280;62589;12.568;99.958;2023-12-04T06:47:04;100787.06;;;37.28;47.23
74230;BME280;62589;12.568;99.958;2023-12-04T06:49:34;100791.84;;;37.28;47.09
74230;BME280;62589;12.568;99.958;2023-12-04T06:52:00;100780.66;;;37.28;46.96
74230;BME280;62589;12.568;99.958;2023-12-04T06:54:27;100777.03;;;37.31;46.69
74230;BME280;62589;12.568;99.958;2023-12-04T06:56:53;100783.00;;;37.33;46.44
74230;BME280;62589;12.568;99.958;2023-12-04T06:59:20;100782.63;;;37.31;45.55
74230;BME280;62589;12.568;99.958;2023-12-04T07:13:26;100761.81;;;37.32;46.73
74230;BME280;62589;12.568;99.958;2023-12-04T07:15:55;100763.34;;;37.36;46.67
74230;BME280;62589;12.568;99.958;2023-12-04T07:18:21;100762.09;;;37.41;45.90
74230;BME280;62589;12.568;99.958;2023-12-04T07:20:48;100752.91;;;37.40;45.94
74230;BME280;62589;12.568;99.958;2023-12-04T07:23:14;100773.31;;;37.41;46.15
74230;BME280;62589;12.568;99.958;2023-12-04T07:25:41;100768.97;;;37.36;45.65
74230;BME280;62589;12.568;99.958;2023-12-04T07:28:07;100770.16;;;37.35;46.13
74230;BME280;62589;12.568;99.958;2023-12-04T07:30:34;100760.22;;;37.31;46.08
74230;BME280;62589;12.568;99.958;2023-12-04T07:33:00;100755.84;;;37.30;45.78
74230;BME280;62589;12.568;99.958;2023-12-04T07:35:27;100756.25;;;37.28;46.65
74230;BME280;62589;12.568;99.958;2023-12-04T07:37:53;100768.31;;;37.22;46.40
74230;BME280;62589;12.568;99.958;2023-12-04T07:40:20;100763.19;;;37.16;46.05
74230;BME280;62589;12.568;99.958;2023-12-04T07:42:48;100751.25;;;37.09;45.66
74230;BME280;62589;12.568;99.958;2023-12-04T07:45:15;100758.06;;;37.08;45.72
74230;BME280;62589;12.568;99.958;2023-12-04T07:47:41;100752.47;;;37.08;45.94
74230;BME280;62589;12.568;99.958;2023-12-04T07:50:08;100749.72;;;37.04;46.35
74230;BME280;62589;12.568;99.958;2023-12-04T07:52:35;100746.91;;;37.04;46.65
74230;BME280;62589;12.568;99.958;2023-12-04T07:55:01;100744.22;;;36.97;46.80
74230;BME280;62589;12.568;99.958;2023-12-04T07:57:29;100744.22;;;36.97;46.82
74230;BME280;62589;12.568;99.958;2023-12-04T07:59:56;100744.66;;;36.92;46.94
74230;BME280;62589;12.568;99.958;2023-12-04T08:02:22;100737.09;;;36.89;47.02
74230;BME280;62589;12.568;99.958;2023-12-04T08:04:49;100731.56;;;36.86;47.47
74230;BME280;62589;12.568;99.958;2023-12-04T08:07:15;100730.75;;;36.85;47.47
74230;BME280;62589;12.568;99.958;2023-12-04T08:09:42;100732.41;;;36.79;47.20
74230;BME280;62589;12.568;99.958;2023-12-04T08:12:08;100732.84;;;36.77;47.37
74230;BME280;62589;12.568;99.958;2023-12-04T08:14:35;100722.50;;;36.74;47.57
74230;BME280;62589;12.568;99.958;2023-12-04T08:17:01;100734.09;;;36.73;47.67
74230;BME280;62589;12.568;99.958;2023-12-04T08:19:28;100729.31;;;36.70;48.07
74230;BME280;62589;12.568;99.958;2023-12-04T08:21:54;100734.53;;;36.68;47.63
74230;BME280;62589;12.568;99.958;2023-12-04T08:24:21;100731.75;;;36.64;47.91
74230;BME280;62589;12.568;99.958;2023-12-04T08:26:48;100734.16;;;36.62;48.21
74230;BME280;62589;12.568;99.958;2023-12-04T08:29:16;100726.19;;;36.61;48.47
74230;BME280;62589;12.568;99.958;2023-12-04T08:31:43;100724.59;;;36.60;47.77
74230;BME280;62589;12.568;99.958;2023-12-04T08:34:10;100722.66;;;36.57;48.07
74230;BME280;62589;12.568;99.958;2023-12-04T08:36:36;100717.88;;;36.57;48.20
74230;BME280;62589;12.568;99.958;2023-12-04T08:39:03;100721.50;;;36.54;48.17
74230;BME280;62589;12.568;99.958;2023-12-04T08:41:30;100725.91;;;36.52;48.28
74230;BME280;62589;12.568;99.958;2023-12-04T08:43:56;100715.97;;;36.47;48.73
74230;BME280;62589;12.568;99.958;2023-12-04T08:46:22;100723.94;;;36.48;48.40
74230;BME280;62589;12.568;99.958;2023-12-04T08:48:49;100725.56;;;36.46;48.54
74230;BME280;62589;12.568;99.958;2023-12-04T08:51:16;100729.97;;;36.43;48.17
74230;BME280;62589;12.568;99.958;2023-12-04T08:53:43;100730.38;;;36.42;48.37
74230;BME280;62589;12.568;99.958;2023-12-04T08:56:10;100731.22;;;36.39;48.49
74230;BME280;62589;12.568;99.958;2023-12-04T08:58:37;100733.59;;;36.40;48.44
74230;BME280;62589;12.568;99.958;2023-12-04T09:01:04;100729.63;;;36.38;48.57
74230;BME280;62589;12.568;99.958;2023-12-04T09:03:31;100731.59;;;36.41;48.84
74230;BME280;62589;12.568;99.958;2023-12-04T09:05:57;100734.44;;;36.37;48.83
74230;BME280;62589;12.568;99.958;2023-12-04T09:08:24;100738.78;;;36.42;48.62
74230;BME280;62589;12.568;99.958;2023-12-04T09:10:53;100732.78;;;36.43;48.71
74230;BME280;62589;12.568;99.958;2023-12-04T09:13:19;100740.75;;;36.45;49.02
74230;BME280;62589;12.568;99.958;2023-12-04T09:15:46;100740.34;;;36.46;48.31
74230;BME280;62589;12.568;99.958;2023-12-04T09:18:13;100731.94;;;36.46;48.43
74230;BME280;62589;12.568;99.958;2023-12-04T09:20:39;100734.34;;;36.44;48.20
74230;BME280;62589;12.568;99.958;2023-12-04T09:23:06;100745.09;;;36.49;48.63
74230;BME280;62589;12.568;99.958;2023-12-04T09:25:32;100747.09;;;36.49;48.64
74230;BME280;62589;12.568;99.958;2023-12-04T09:27:59;100749.09;;;36.48;48.56
74230;BME280;62589;12.568;99.958;2023-12-04T09:30:26;100749.09;;;36.48;48.31
74230;BME280;62589;12.568;99.958;2023-12-04T09:32:52;100746.72;;;36.47;48.35
74230;BME280;62589;12.568;99.958;2023-12-04T09:35:19;100751.09;;;36.48;48.15
74230;BME280;62589;12.568;99.958;2023-12-04T09:37:45;100751.09;;;36.48;48.37
74230;BME280;62589;12.568;99.958;2023-12-04T09:40:12;100750.72;;;36.46;48.23
74230;BME280;62589;12.568;99.958;2023-12-04T09:42:39;100759.47;;;36.52;47.86
74230;BME280;62589;12.568;99.958;2023-12-04T09:45:07;100751.91;;;36.48;48.33
74230;BME280;62589;12.568;99.958;2023-12-04T09:47:34;100756.69;;;36.48;48.24
74230;BME280;62589;12.568;99.958;2023-12-04T09:50:02;100755.09;;;36.47;48.28
74230;BME280;62589;12.568;99.958;2023-12-04T09:52:30;100757.53;;;36.45;47.78
74230;BME280;62589;12.568;99.958;2023-12-04T09:54:57;100760.72;;;36.43;48.02
74230;BME280;62589;12.568;99.958;2023-12-04T09:57:23;100755.97;;;36.40;48.06
74230;BME280;62589;12.568;99.958;2023-12-04T09:59:51;100763.59;;;36.36;47.74
74230;BME280;62589;12.568;99.958;2023-12-04T10:02:19;100760.44;;;36.34;47.95
74230;BME280;62589;12.568;99.958;2023-12-04T10:04:47;100753.25;;;36.33;47.88
74230;BME280;62589;12.568;99.958;2023-12-04T10:07:14;100765.63;;;36.32;47.90
74230;BME280;62589;12.568;99.958;2023-12-04T10:09:41;100758.88;;;36.30;47.87
74230;BME280;62589;12.568;99.958;2023-12-04T10:12:08;100770.88;;;36.27;47.70
74230;BME280;62589;12.568;99.958;2023-12-04T10:14:35;100772.50;;;36.24;47.84
74230;BME280;62589;12.568;99.958;2023-12-04T10:17:14;100773.66;;;36.23;48.20
74230;BME280;62589;12.568;99.958;2023-12-04T10:19:43;100781.66;;;36.21;48.18
74230;BME280;62589;12.568;99.958;2023-12-04T10:22:10;100777.69;;;36.19;48.56
74230;BME280;62589;12.568;99.958;2023-12-04T10:24:38;100777.72;;;36.15;48.88
74230;BME280;62589;12.568;99.958;2023-12-04T10:38:30;100793.03;;;35.96;49.92
74230;BME280;62589;12.568;99.958;2023-12-04T10:41:12;100797.78;;;36.03;49.43
74230;BME280;62589;12.568;99.958;2023-12-04T10:43:47;100794.59;;;36.01;49.34
74230;BME280;62589;12.568;99.958;2023-12-04T10:46:15;100793.38;;;36.02;49.38
74230;BME280;62589;12.568;99.958;2023-12-04T10:48:48;100800.19;;;36.01;49.42
74230;BME280;62589;12.568;99.958;2023-12-04T10:51:16;100799.41;;;35.97;49.68
74230;BME280;62589;12.568;99.958;2023-12-04T10:53:44;100802.63;;;35.95;50.21
74230;BME280;62589;12.568;99.958;2023-12-04T10:56:33;100809.78;;;35.96;50.19
74230;BME280;62589;12.568;99.958;2023-12-04T10:59:03;100811.84;;;35.89;50.44
74230;BME280;62589;12.568;99.958;2023-12-04T11:01:33;100813.06;;;35.84;50.62
74230;BME280;62589;12.568;99.958;2023-12-04T11:04:00;100809.91;;;35.78;50.70
74230;BME280;62589;12.568;99.958;2023-12-04T11:06:32;100814.63;;;35.89;50.89
74230;BME280;62589;12.568;99.958;2023-12-04T11:09:01;100813.91;;;35.70;51.24
74230;BME280;62589;12.568;99.958;2023-12-04T11:11:34;100815.13;;;35.66;51.44
74230;BME280;62589;12.568;99.958;2023-12-04T11:14:05;100823.94;;;35.61;51.88
74230;BME280;62589;12.568;99.958;2023-12-04T11:16:55;100820.34;;;35.60;51.82
74230;BME280;62589;12.568;99.958;2023-12-04T11:19:35;100839.50;;;35.55;51.97
74230;BME280;62589;12.568;99.958;2023-12-04T11:22:04;100831.19;;;35.51;52.04
74230;BME280;62589;12.568;99.958;2023-12-04T11:24:33;100840.34;;;35.48;52.39
74230;BME280;62589;12.568;99.958;2023-12-04T11:27:02;100843.94;;;35.45;52.43
74230;BME280;62589;12.568;99.958;2023-12-04T11:29:30;100848.75;;;35.44;52.42
74230;BME280;62589;12.568;99.958;2023-12-04T11:31:57;100846.34;;;35.43;52.45
74230;BME280;62589;12.568;99.958;2023-12-04T11:34:24;100852.75;;;35.40;52.32
74230;BME280;62589;12.568;99.958;2023-12-04T11:36:51;100855.53;;;35.40;52.30
74230;BME280;62589;12.568;99.958;2023-12-04T11:39:18;100847.97;;;35.37;52.51
74230;BME280;62589;12.568;99.958;2023-12-04T11:41:45;100852.34;;;35.34;52.50
74230;BME280;62589;12.568;99.958;2023-12-04T11:44:13;100859.16;;;35.33;52.63
74230;BME280;62589;12.568;99.958;2023-12-04T11:47:02;100861.53;;;35.35;52.72
74230;BME280;62589;12.568;99.958;2023-12-04T11:49:30;100873.53;;;35.32;52.79
74230;BME280;62589;12.568;99.958;2023-12-04T11:52:01;100869.94;;;35.28;52.95
74230;BME280;62589;12.568;99.958;2023-12-04T11:55:03;100870.72;;;35.32;52.69
74230;BME280;62589;12.568;99.958;2023-12-04T11:57:38;100873.91;;;35.27;52.79
74230;BME280;62589;12.568;99.958;2023-12-04T12:00:22;100881.47;;;35.26;52.77
74230;BME280;62589;12.568;99.958;2023-12-04T12:03:08;100885.88;;;35.31;52.78
74230;BME280;62589;12.568;99.958;2023-12-04T12:05:37;100883.47;;;35.26;52.86
74230;BME280;62589;12.568;99.958;2023-12-04T12:08:08;100884.28;;;35.23;52.92
74230;BME280;62589;12.568;99.958;2023-12-04T12:10:35;100891.06;;;35.22;52.90
74230;BME280;62589;12.568;99.958;2023-12-04T12:13:02;100883.06;;;35.20;53.07
74230;BME280;62589;12.568;99.958;2023-12-04T12:15:29;100887.47;;;35.21;53.06
74230;BME280;62589;12.568;99.958;2023-12-04T12:17:55;100897.44;;;35.19;53.30
74230;BME280;62589;12.568;99.958;2023-12-04T12:20:22;100899.03;;;35.16;53.40
74230;BME280;62589;12.568;99.958;2023-12-04T12:22:49;100905.00;;;35.14;53.40
74230;BME280;62589;12.568;99.958;2023-12-04T12:25:17;100910.22;;;35.12;53.39
74230;BME280;62589;12.568;99.958;2023-12-04T12:27:45;100905.41;;;35.13;53.62
74230;BME280;62589;12.568;99.958;2023-12-04T12:30:12;100910.22;;;35.12;53.81
74230;BME280;62589;12.568;99.958;2023-12-04T12:32:38;100914.22;;;35.11;53.85
74230;BME280;62589;12.568;99.958;2023-12-04T12:35:05;100920.97;;;35.10;53.61
74230;BME280;62589;12.568;99.958;2023-12-04T12:37:33;100919.38;;;35.09;53.64
74230;BME280;62589;12.568;99.958;2023-12-04T12:40:01;100924.16;;;35.09;53.64
74230;BME280;62589;12.568;99.958;2023-12-04T12:42:30;100927.38;;;35.07;53.71
74230;BME280;62589;12.568;99.958;2023-12-04T12:45:01;100925.75;;;35.06;53.66
74230;BME280;62589;12.568;99.958;2023-12-04T12:47:29;100929.75;;;35.05;54.04
74230;BME280;62589;12.568;99.958;2023-12-04T12:49:56;100929.34;;;35.03;54.30
74230;BME280;62589;12.568;99.958;2023-12-04T12:52:22;100935.72;;;35.00;54.36
74230;BME280;62589;12.568;99.958;2023-12-04T12:54:49;100928.16;;;34.97;54.44
74230;BME280;62589;12.568;99.958;2023-12-04T12:57:15;100947.28;;;34.95;54.50
74230;BME280;62589;12.568;99.958;2023-12-04T12:59:42;100947.69;;;34.94;54.30
74230;BME280;62589;12.568;99.958;2023-12-04T13:02:08;100951.66;;;34.93;54.51
74230;BME280;62589;12.568;99.958;2023-12-04T13:04:43;100951.28;;;34.91;54.86